Time;durP1;ratioP1;P1;durP2;ratioP2;P2;SDS_P1;SDS_P2;PMS_P1;PMS_P2;Temp;Humidity;BMP_temperature;BMP_pressure;BME280_temperature;BME280_humidity;BME280_pressure;Samples;Min_cycle;Max_cycle;Signal;HPM_P1;HPM_P2
2022/07/03 00:01:11;;;;;;;7.00;5.43;;;19.80;64.20;;;;;;5115597;28;20028;-76
2022/07/03 00:03:37;;;;;;;7.53;5.63;;;19.70;64.50;;;;;;5115398;28;20049;-76
2022/07/03 00:06:03;;;;;;;6.00;5.40;;;19.70;64.70;;;;;;5115336;28;20032;-76
2022/07/03 00:08:30;;;;;;;5.93;5.43;;;19.70;64.80;;;;;;5115202;28;20031;-77
2022/07/03 00:10:55;;;;;;;6.35;5.75;;;19.70;65.00;;;;;;5115285;28;20423;-76
2022/07/03 00:13:21;;;;;;;7.22;5.80;;;19.70;65.10;;;;;;5115157;28;20028;-77
2022/07/03 00:15:47;;;;;;;5.78;5.20;;;19.70;65.10;;;;;;5097325;28;20494;-77
2022/07/03 00:18:12;;;;;;;6.05;5.32;;;19.60;65.20;;;;;;5115245;28;20048;-76
2022/07/03 00:20:48;;;;;;;5.97;5.32;;;19.60;65.10;;;;;;5115086;28;20024;-76
2022/07/03 00:23:19;;;;;;;6.47;5.72;;;19.60;65.30;;;;;;5115093;28;20020;-76
2022/07/03 00:25:44;;;;;;;6.30;5.35;;;19.50;65.60;;;;;;5097224;28;20039;-76
2022/07/03 00:28:10;;;;;;;6.13;5.53;;;19.50;66.70;;;;;;5114864;28;20032;-76
2022/07/03 00:30:36;;;;;;;6.50;5.82;;;19.50;65.80;;;;;;5115066;28;20028;-76
2022/07/03 00:33:03;;;;;;;6.18;5.57;;;19.50;65.80;;;;;;5114785;28;20024;-76
2022/07/03 00:35:32;;;;;;;5.93;5.28;;;19.50;66.00;;;;;;5114790;28;20047;-75
2022/07/03 00:37:58;;;;;;;5.93;5.43;;;19.40;65.60;;;;;;5114713;28;20012;-76
2022/07/03 00:40:24;;;;;;;8.50;5.13;;;19.40;65.30;;;;;;5114644;28;20031;-76
2022/07/03 00:42:53;;;;;;;8.57;5.30;;;19.40;65.30;;;;;;5114565;28;20028;-76
2022/07/03 00:45:22;;;;;;;6.43;5.28;;;19.40;65.40;;;;;;5114551;28;20026;-76
2022/07/03 00:47:48;;;;;;;6.40;5.05;;;19.40;65.40;;;;;;5114507;28;20035;-75
2022/07/03 00:50:14;;;;;;;5.38;4.80;;;19.30;65.20;;;;;;5114479;28;20028;-75
2022/07/03 00:52:46;;;;;;;5.40;4.53;;;19.30;65.40;;;;;;5096180;28;20044;-75
2022/07/03 00:55:16;;;;;;;5.82;5.13;;;19.30;65.50;;;;;;5114410;28;20080;-75
2022/07/03 00:57:47;;;;;;;7.65;5.35;;;19.30;65.40;;;;;;5114339;28;20016;-75
2022/07/03 01:00:17;;;;;;;5.93;5.07;;;19.20;65.30;;;;;;5114290;28;20020;-75
2022/07/03 01:02:45;;;;;;;6.78;4.95;;;18.90;65.80;;;;;;5114244;28;20031;-75
2022/07/03 01:05:22;;;;;;;6.53;4.70;;;18.80;66.40;;;;;;5114170;28;20053;-75
2022/07/03 01:08:00;;;;;;;7.88;4.88;;;18.80;66.30;;;;;;5114166;28;20069;-75
2022/07/03 01:10:42;;;;;;;6.07;4.97;;;18.70;66.10;;;;;;5096356;28;20035;-75
2022/07/03 01:13:46;;;;;;;7.15;5.20;;;18.80;65.50;;;;;;5114175;28;20024;-75
2022/07/03 01:16:23;;;;;;;6.32;4.97;;;18.80;65.10;;;;;;5109025;28;20036;-75
2022/07/03 01:18:50;;;;;;;6.32;4.93;;;18.80;65.30;;;;;;5096062;28;20020;-75
2022/07/03 01:21:33;;;;;;;6.47;5.00;;;18.80;65.20;;;;;;5113928;28;20050;-75
2022/07/03 01:24:28;;;;;;;5.75;5.22;;;18.70;64.90;;;;;;5113638;28;20065;-75
2022/07/03 01:27:00;;;;;;;5.70;5.10;;;18.60;65.50;;;;;;5113971;28;20020;-75
2022/07/03 01:29:51;;;;;;;6.25;5.00;;;18.40;65.50;;;;;;5113785;28;20047;-75
2022/07/03 01:32:19;;;;;;;7.45;5.03;;;18.40;65.80;;;;;;5113842;28;20026;-75
2022/07/03 01:34:50;;;;;;;6.88;5.35;;;18.40;64.30;;;;;;5113752;28;20023;-76
2022/07/03 01:37:19;;;;;;;5.97;5.38;;;18.20;65.10;;;;;;5113744;28;20020;-75
2022/07/03 01:39:48;;;;;;;7.82;5.75;;;18.20;66.30;;;;;;5113649;28;20031;-75
2022/07/03 01:42:15;;;;;;;7.13;5.78;;;18.20;67.50;;;;;;5113627;28;20055;-75
2022/07/03 01:44:41;;;;;;;6.13;5.53;;;18.20;67.00;;;;;;5113595;28;20055;-75
2022/07/03 01:47:07;;;;;;;6.68;5.63;;;18.20;67.30;;;;;;5113586;28;20020;-75
2022/07/03 01:49:34;;;;;;;8.57;5.85;;;18.30;67.30;;;;;;5113549;28;20364;-75
2022/07/03 01:52:01;;;;;;;8.32;5.90;;;18.40;66.90;;;;;;5113275;28;20110;-75
2022/07/03 01:54:29;;;;;;;6.75;6.15;;;18.30;66.90;;;;;;5113507;28;20017;-76
2022/07/03 01:56:55;;;;;;;8.45;6.53;;;18.40;66.90;;;;;;5113446;28;20135;-75
2022/07/03 01:59:21;;;;;;;6.90;6.20;;;18.50;66.80;;;;;;5113459;28;20024;-75
2022/07/03 02:02:11;;;;;;;7.05;6.35;;;18.50;66.80;;;;;;5113535;28;20020;-75
2022/07/03 02:05:08;;;;;;;7.22;6.35;;;18.40;66.80;;;;;;5095517;28;20028;-75
2022/07/03 02:07:52;;;;;;;6.43;5.82;;;18.50;66.80;;;;;;5113496;28;20038;-75
2022/07/03 02:10:27;;;;;;;7.25;6.65;;;18.40;66.80;;;;;;5113375;28;20073;-75
2022/07/03 02:13:02;;;;;;;8.50;6.60;;;18.40;66.80;;;;;;5113251;28;20051;-75
2022/07/03 02:15:33;;;;;;;7.60;6.80;;;18.50;66.80;;;;;;5113449;28;20027;-75
2022/07/03 02:18:28;;;;;;;7.35;6.65;;;18.50;67.00;;;;;;5113274;28;20086;-75
2022/07/03 02:21:17;;;;;;;7.78;6.78;;;18.50;66.90;;;;;;5113424;28;20012;-75
2022/07/03 02:23:53;;;;;;;8.52;6.63;;;18.50;66.80;;;;;;5113265;28;20074;-75
2022/07/03 02:26:24;;;;;;;9.85;7.13;;;18.40;67.30;;;;;;5095317;28;20028;-75
2022/07/03 02:29:03;;;;;;;9.15;6.95;;;18.40;67.50;;;;;;5113130;28;20489;-75
2022/07/03 02:31:39;;;;;;;7.90;7.10;;;18.40;67.80;;;;;;5113206;28;20066;-75
2022/07/03 02:34:06;;;;;;;10.65;7.20;;;18.40;67.50;;;;;;5113303;28;20023;-75
2022/07/03 02:36:33;;;;;;;10.35;7.10;;;18.40;66.80;;;;;;5117065;28;20385;-75
2022/07/03 02:38:59;;;;;;;8.10;7.30;;;18.40;66.60;;;;;;5116980;28;20028;-75
2022/07/03 02:41:42;;;;;;;9.32;7.18;;;18.40;66.70;;;;;;5117001;28;20421;-75
2022/07/03 02:44:21;;;;;;;10.85;7.55;;;18.30;67.20;;;;;;5117117;28;20031;-75
2022/07/03 02:47:01;;;;;;;9.82;7.03;;;18.30;67.40;;;;;;5116905;28;20024;-75
2022/07/03 02:49:43;;;;;;;8.93;7.07;;;18.40;67.20;;;;;;5116853;28;20025;-75
2022/07/03 02:52:31;;;;;;;8.23;7.30;;;18.30;67.40;;;;;;5098451;28;20040;-75
2022/07/03 02:55:03;;;;;;;8.93;6.97;;;18.30;67.20;;;;;;5098740;28;20028;-75
2022/07/03 02:57:38;;;;;;;11.27;6.53;;;18.20;67.40;;;;;;5116758;28;20020;-75
2022/07/03 03:00:06;;;;;;;9.20;7.07;;;18.20;67.30;;;;;;5116665;28;20250;-75
2022/07/03 03:02:52;;;;;;;7.47;6.68;;;18.20;67.30;;;;;;5098600;28;20024;-75
2022/07/03 03:05:27;;;;;;;7.70;6.90;;;18.20;67.40;;;;;;5116613;28;20016;-75
2022/07/03 03:08:08;;;;;;;8.05;7.00;;;18.10;67.50;;;;;;5116603;28;20035;-75
2022/07/03 03:10:38;;;;;;;8.13;7.32;;;18.00;67.40;;;;;;5116452;28;20020;-75
2022/07/03 03:13:13;;;;;;;8.00;7.03;;;18.00;67.70;;;;;;5116239;28;20032;-75
2022/07/03 03:15:55;;;;;;;13.35;7.22;;;18.00;67.60;;;;;;5116335;28;20024;-75
2022/07/03 03:18:25;;;;;;;7.82;6.97;;;18.00;67.80;;;;;;5116333;28;20020;-75
2022/07/03 03:20:55;;;;;;;8.15;7.13;;;18.00;67.40;;;;;;5116282;28;20016;-75
2022/07/03 03:23:50;;;;;;;9.45;7.25;;;17.90;67.40;;;;;;5116240;28;20057;-75
2022/07/03 03:26:24;;;;;;;11.85;7.32;;;17.80;67.70;;;;;;5098319;28;20035;-75
2022/07/03 03:28:51;;;;;;;8.57;7.68;;;17.50;68.20;;;;;;5098937;28;20088;-75
2022/07/03 03:31:18;;;;;;;9.93;7.70;;;17.50;68.30;;;;;;5115977;28;20050;-75
2022/07/03 03:33:46;;;;;;;9.30;7.93;;;17.50;68.40;;;;;;5115911;28;20024;-75
2022/07/03 03:36:15;;;;;;;9.13;7.53;;;17.50;68.40;;;;;;5115943;28;20054;-75
2022/07/03 03:38:41;;;;;;;12.23;8.02;;;17.50;68.30;;;;;;5115934;28;20035;-75
2022/07/03 03:41:08;;;;;;;9.05;7.97;;;17.50;68.70;;;;;;5115849;28;20024;-75
2022/07/03 03:43:34;;;;;;;9.52;8.35;;;17.50;68.90;;;;;;5115759;28;20031;-75
2022/07/03 03:46:00;;;;;;;11.27;8.77;;;17.50;69.00;;;;;;5115396;28;20050;-75
2022/07/03 03:48:27;;;;;;;9.65;8.73;;;17.40;69.40;;;;;;5115747;28;20032;-75
2022/07/03 03:50:53;;;;;;;10.38;8.73;;;17.40;69.80;;;;;;5115556;28;20024;-75
2022/07/03 03:53:19;;;;;;;10.57;8.95;;;17.40;69.80;;;;;;5097288;28;20051;-75
2022/07/03 03:55:58;;;;;;;9.95;8.82;;;17.50;69.80;;;;;;5097737;28;20021;-75
2022/07/03 03:58:24;;;;;;;11.63;8.85;;;17.50;69.80;;;;;;5115705;28;20016;-75
2022/07/03 04:00:49;;;;;;;9.52;8.52;;;17.50;69.60;;;;;;5115585;28;20435;-75
2022/07/03 04:03:15;;;;;;;10.05;9.05;;;17.60;69.30;;;;;;5115506;28;20017;-75
2022/07/03 04:05:41;;;;;;;11.52;8.65;;;17.70;69.30;;;;;;5115320;28;20114;-75
2022/07/03 04:08:06;;;;;;;9.75;8.63;;;17.70;69.40;;;;;;5115303;28;20024;-75
2022/07/03 04:10:32;;;;;;;10.05;8.85;;;17.70;69.60;;;;;;5097466;28;20025;-75
2022/07/03 04:12:57;;;;;;;12.50;8.57;;;17.70;69.60;;;;;;5115136;28;20027;-75
2022/07/03 04:15:23;;;;;;;10.13;9.10;;;17.80;69.70;;;;;;5115279;28;20050;-75
2022/07/03 04:17:52;;;;;;;11.00;8.80;;;17.80;69.80;;;;;;5097259;28;20047;-75
2022/07/03 04:20:18;;;;;;;9.52;7.85;;;17.80;70.10;;;;;;5115059;28;20024;-75
2022/07/03 04:22:43;;;;;;;10.65;8.40;;;17.80;70.10;;;;;;5114959;28;20025;-75
2022/07/03 04:25:09;;;;;;;10.15;8.25;;;17.80;70.40;;;;;;5114992;28;20040;-75
2022/07/03 04:27:35;;;;;;;12.05;8.65;;;17.90;70.20;;;;;;5115069;28;20035;-75
2022/07/03 04:30:00;;;;;;;10.52;8.30;;;17.90;70.30;;;;;;5114778;28;20040;-75
2022/07/03 04:32:26;;;;;;;10.20;8.77;;;17.90;70.30;;;;;;5114886;28;20020;-75
2022/07/03 04:34:51;;;;;;;10.27;8.32;;;17.90;70.50;;;;;;5114762;28;20046;-75
2022/07/03 04:37:17;;;;;;;12.68;9.07;;;18.00;70.20;;;;;;5114764;28;20028;-75
2022/07/03 04:39:43;;;;;;;10.18;8.27;;;18.00;70.10;;;;;;5114657;28;20032;-75
2022/07/03 04:42:08;;;;;;;9.52;8.52;;;18.00;70.30;;;;;;5096663;28;20032;-76
2022/07/03 04:44:34;;;;;;;10.18;9.00;;;18.00;70.30;;;;;;5114597;28;20043;-75
2022/07/03 04:46:59;;;;;;;10.80;9.65;;;18.10;70.30;;;;;;5114551;28;20028;-75
2022/07/03 04:49:25;;;;;;;15.88;11.05;;;18.10;70.30;;;;;;5114463;28;20036;-75
2022/07/03 04:51:52;;;;;;;12.80;9.95;;;18.10;70.10;;;;;;5114398;28;20035;-75
2022/07/03 04:54:18;;;;;;;13.32;10.23;;;18.00;70.10;;;;;;5114315;28;20062;-75
2022/07/03 04:56:43;;;;;;;13.60;11.07;;;17.90;70.20;;;;;;5113945;28;20486;-75
2022/07/03 04:59:09;;;;;;;12.00;10.40;;;17.90;70.60;;;;;;5114165;28;20030;-75
2022/07/03 05:01:35;;;;;;;13.80;10.27;;;17.90;70.90;;;;;;5114312;28;20031;-75
2022/07/03 05:04:00;;;;;;;12.30;10.50;;;17.90;71.00;;;;;;5114369;28;20024;-75
2022/07/03 05:06:26;;;;;;;13.18;11.15;;;17.80;71.40;;;;;;5114199;28;20036;-75
2022/07/03 05:08:51;;;;;;;13.88;10.80;;;17.80;71.50;;;;;;5114258;28;20028;-75
2022/07/03 05:11:17;;;;;;;14.95;11.40;;;17.80;71.80;;;;;;5114106;28;20032;-75
2022/07/03 05:13:42;;;;;;;13.73;10.98;;;17.80;71.90;;;;;;5114079;28;20044;-75
2022/07/03 05:16:08;;;;;;;13.63;11.88;;;17.90;72.20;;;;;;5114012;28;20023;-75
2022/07/03 05:18:35;;;;;;;14.68;11.70;;;17.90;72.30;;;;;;5114112;28;20028;-74
2022/07/03 05:21:01;;;;;;;13.23;10.35;;;18.00;72.40;;;;;;5114059;28;20024;-75
2022/07/03 05:23:26;;;;;;;10.90;9.70;;;18.00;72.20;;;;;;5113937;28;20030;-75
2022/07/03 05:25:52;;;;;;;13.00;9.68;;;18.10;72.10;;;;;;5113874;28;20387;-75
2022/07/03 05:28:18;;;;;;;12.45;9.07;;;18.20;71.80;;;;;;5113773;28;20043;-75
2022/07/03 05:30:44;;;;;;;9.05;7.85;;;18.20;71.60;;;;;;5096099;28;20046;-75
2022/07/03 05:33:09;;;;;;;10.15;7.40;;;18.30;71.30;;;;;;5113691;28;20036;-75
2022/07/03 05:35:35;;;;;;;9.95;6.75;;;18.30;71.00;;;;;;5113724;28;20035;-75
2022/07/03 05:38:00;;;;;;;8.10;6.65;;;18.40;71.50;;;;;;5113667;28;20039;-74
2022/07/03 05:40:26;;;;;;;11.00;7.30;;;18.50;70.50;;;;;;5113671;28;20035;-74
2022/07/03 05:42:53;;;;;;;7.53;6.45;;;18.50;70.50;;;;;;5095880;28;20031;-74
2022/07/03 05:45:19;;;;;;;10.77;7.03;;;18.50;70.20;;;;;;5095990;28;20125;-75
2022/07/03 05:47:44;;;;;;;11.15;6.40;;;18.50;70.30;;;;;;5113629;28;20020;-75
2022/07/03 05:50:10;;;;;;;7.70;6.55;;;18.50;70.50;;;;;;5113715;28;20106;-75
2022/07/03 05:52:36;;;;;;;7.90;6.32;;;18.60;70.60;;;;;;5113382;28;20048;-75
2022/07/03 05:55:02;;;;;;;8.77;6.93;;;18.70;70.60;;;;;;5113486;28;20039;-75
2022/07/03 05:57:28;;;;;;;8.35;4.72;;;18.70;70.60;;;;;;5113275;28;20024;-75
2022/07/03 05:59:54;;;;;;;7.32;4.70;;;18.80;70.40;;;;;;5113454;28;20080;-75
2022/07/03 06:02:19;;;;;;;5.85;3.53;;;18.90;69.90;;;;;;5113426;28;20099;-75
2022/07/03 06:04:45;;;;;;;6.65;4.05;;;18.90;69.20;;;;;;5113442;28;20049;-75
2022/07/03 06:07:11;;;;;;;7.68;3.47;;;18.90;69.40;;;;;;5095504;28;20032;-75
2022/07/03 06:09:36;;;;;;;5.32;3.47;;;18.90;69.30;;;;;;5116251;28;20020;-75
2022/07/03 06:12:02;;;;;;;6.20;3.55;;;19.00;69.20;;;;;;5117533;28;20035;-75
2022/07/03 06:14:28;;;;;;;4.55;2.90;;;19.00;68.80;;;;;;5117563;28;20055;-76
2022/07/03 06:16:53;;;;;;;8.85;3.53;;;19.10;68.40;;;;;;5117448;28;20046;-76
2022/07/03 06:19:19;;;;;;;6.85;3.40;;;19.10;68.40;;;;;;5117458;28;20032;-75
2022/07/03 06:21:45;;;;;;;7.35;3.22;;;19.10;68.30;;;;;;5117416;28;20035;-76
2022/07/03 06:24:10;;;;;;;5.65;3.40;;;19.10;67.90;;;;;;5099464;28;20070;-75
2022/07/03 06:26:37;;;;;;;7.80;3.40;;;19.10;68.40;;;;;;5117316;28;20035;-76
2022/07/03 06:29:02;;;;;;;7.93;3.50;;;19.10;68.40;;;;;;5117184;28;20028;-75
2022/07/03 06:31:28;;;;;;;7.55;3.50;;;19.20;68.10;;;;;;5117229;28;20023;-75
2022/07/03 06:33:54;;;;;;;5.07;2.92;;;19.20;68.30;;;;;;5099284;28;20074;-76
2022/07/03 06:36:19;;;;;;;5.00;3.08;;;19.30;68.20;;;;;;5117128;28;20054;-76
2022/07/03 06:38:45;;;;;;;6.10;3.38;;;19.30;68.30;;;;;;5117201;28;20043;-75
2022/07/03 06:41:10;;;;;;;7.97;3.40;;;19.30;68.50;;;;;;5116983;28;20081;-75
2022/07/03 06:43:36;;;;;;;7.10;3.53;;;19.30;68.40;;;;;;5116950;28;20110;-75
2022/07/03 06:46:01;;;;;;;5.30;3.10;;;19.40;68.60;;;;;;5099062;28;20036;-75
2022/07/03 06:48:27;;;;;;;6.18;3.08;;;19.40;68.70;;;;;;5116882;28;20040;-76
2022/07/03 06:50:53;;;;;;;4.57;3.00;;;19.40;68.70;;;;;;5116807;28;20032;-76
2022/07/03 06:53:18;;;;;;;8.43;3.88;;;19.40;68.30;;;;;;5116577;28;20072;-75
2022/07/03 06:55:44;;;;;;;10.27;3.80;;;19.40;68.80;;;;;;5116734;28;20016;-75
2022/07/03 06:58:09;;;;;;;5.15;3.35;;;19.50;69.00;;;;;;5116646;28;20042;-76
2022/07/03 07:00:38;;;;;;;7.18;3.42;;;19.50;69.10;;;;;;5116587;28;20020;-75
2022/07/03 07:03:04;;;;;;;7.47;3.60;;;19.50;68.50;;;;;;5116530;28;20020;-75
2022/07/03 07:05:30;;;;;;;7.15;3.53;;;19.60;69.00;;;;;;5116540;28;20038;-75
2022/07/03 07:07:55;;;;;;;5.32;3.67;;;19.60;70.00;;;;;;5116500;28;20020;-75
2022/07/03 07:10:21;;;;;;;6.90;3.35;;;19.60;68.80;;;;;;5116447;28;20474;-75
2022/07/03 07:12:47;;;;;;;6.13;3.03;;;19.70;68.80;;;;;;5116206;28;20020;-75
2022/07/03 07:15:12;;;;;;;7.90;3.30;;;19.70;68.70;;;;;;5116372;28;20471;-75
2022/07/03 07:17:38;;;;;;;6.07;3.15;;;19.80;68.70;;;;;;5116319;28;20020;-75
2022/07/03 07:20:04;;;;;;;6.32;3.13;;;19.90;68.60;;;;;;5115503;28;20383;-75
2022/07/03 07:22:30;;;;;;;5.50;2.75;;;19.80;68.50;;;;;;5116198;28;20036;-75
2022/07/03 07:24:55;;;;;;;5.30;2.95;;;19.80;67.90;;;;;;5116176;28;20103;-75
2022/07/03 07:27:21;;;;;;;4.38;2.80;;;19.90;68.10;;;;;;5116154;28;20028;-74
2022/07/03 07:29:47;;;;;;;6.72;2.85;;;19.90;68.20;;;;;;5116041;28;20051;-75
2022/07/03 07:32:12;;;;;;;5.90;2.80;;;20.00;68.60;;;;;;5115924;28;20032;-73
2022/07/03 07:34:38;;;;;;;5.78;2.65;;;20.00;67.60;;;;;;5115998;28;20079;-73
2022/07/03 07:37:04;;;;;;;3.65;2.40;;;20.10;66.80;;;;;;5115926;28;20062;-73
2022/07/03 07:39:30;;;;;;;4.90;2.78;;;20.10;66.20;;;;;;5115907;28;20028;-73
2022/07/03 07:41:55;;;;;;;7.10;3.05;;;20.10;67.10;;;;;;5115810;28;20028;-73
2022/07/03 07:44:21;;;;;;;3.92;2.35;;;20.20;67.60;;;;;;5115928;28;20020;-73
2022/07/03 07:46:47;;;;;;;3.60;1.90;;;20.30;67.10;;;;;;5115730;28;20028;-73
2022/07/03 07:49:12;;;;;;;4.30;1.75;;;20.40;66.90;;;;;;5115716;28;20032;-73
2022/07/03 07:51:38;;;;;;;3.75;2.05;;;20.50;66.30;;;;;;5115687;28;20028;-73
2022/07/03 07:54:03;;;;;;;4.75;2.40;;;20.60;65.20;;;;;;5097561;28;20070;-73
2022/07/03 07:56:29;;;;;;;4.05;2.17;;;20.60;65.60;;;;;;5115569;28;20028;-74
2022/07/03 07:58:55;;;;;;;5.70;2.47;;;20.70;65.60;;;;;;5097608;28;20043;-73
2022/07/03 08:06:49;;;;;;;4.55;1.60;;;20.80;64.40;;;;;;5100557;28;20066;-73
2022/07/03 08:09:15;;;;;;;3.88;1.85;;;20.80;62.80;;;;;;5115265;28;20024;-73
2022/07/03 08:11:41;;;;;;;3.45;1.90;;;20.90;62.10;;;;;;5115279;28;20032;-73
2022/07/03 08:14:07;;;;;;;3.85;1.90;;;20.90;63.00;;;;;;5115126;28;20087;-73
2022/07/03 08:16:34;;;;;;;3.97;1.90;;;21.00;61.70;;;;;;5115240;28;20092;-74
2022/07/03 08:19:00;;;;;;;3.78;1.95;;;21.00;61.30;;;;;;5115139;28;20032;-75
2022/07/03 08:21:27;;;;;;;3.17;2.08;;;21.00;62.20;;;;;;5115075;28;20025;-74
2022/07/03 08:23:53;;;;;;;3.30;1.80;;;21.10;62.10;;;;;;5115036;28;20031;-73
2022/07/03 08:26:18;;;;;;;3.15;2.40;;;21.10;62.30;;;;;;5115027;28;20364;-73
2022/07/03 08:28:44;;;;;;;4.82;2.70;;;21.10;62.20;;;;;;5114610;28;20096;-73
2022/07/03 08:31:09;;;;;;;3.88;1.52;;;21.10;62.60;;;;;;5114652;28;20036;-73
2022/07/03 08:33:36;;;;;;;4.85;2.22;;;21.10;60.70;;;;;;5096107;28;20074;-73
2022/07/03 08:36:02;;;;;;;4.28;2.20;;;21.20;60.60;;;;;;5114797;28;20021;-74
2022/07/03 08:38:33;;;;;;;6.20;2.80;;;21.30;61.20;;;;;;5114788;28;20012;-74
2022/07/03 08:41:00;;;;;;;5.82;3.15;;;21.30;62.10;;;;;;5114952;28;20024;-74
2022/07/03 08:43:26;;;;;;;4.63;2.30;;;21.40;62.70;;;;;;5114660;28;20081;-74
2022/07/03 08:45:53;;;;;;;4.50;2.38;;;21.50;62.00;;;;;;5096647;28;20088;-74
2022/07/03 08:48:21;;;;;;;3.85;2.70;;;21.60;61.50;;;;;;5114642;28;20352;-74
2022/07/03 08:50:48;;;;;;;4.85;2.67;;;21.70;61.00;;;;;;5114549;28;20028;-73
2022/07/03 08:53:15;;;;;;;10.45;3.08;;;21.50;58.80;;;;;;5114331;28;20047;-73
2022/07/03 08:55:41;;;;;;;5.78;3.10;;;21.50;60.30;;;;;;5114448;28;20026;-73
2022/07/03 08:58:10;;;;;;;4.03;2.70;;;21.50;61.00;;;;;;5114406;28;20016;-73
2022/07/03 09:00:37;;;;;;;4.65;2.50;;;21.60;60.90;;;;;;5114500;28;20016;-73
2022/07/03 09:03:04;;;;;;;5.05;2.50;;;21.60;62.70;;;;;;5114338;28;20462;-73
2022/07/03 09:05:30;;;;;;;5.05;1.92;;;21.60;61.20;;;;;;5114267;28;20028;-73
2022/07/03 09:07:59;;;;;;;5.22;2.47;;;21.70;62.20;;;;;;5114250;28;20031;-74
2022/07/03 09:10:24;;;;;;;3.95;2.67;;;21.80;63.10;;;;;;5114202;28;20044;-75
2022/07/03 09:12:50;;;;;;;4.35;2.20;;;21.80;61.70;;;;;;5114016;28;20024;-75
2022/07/03 09:15:16;;;;;;;2.22;1.67;;;21.90;61.80;;;;;;5114098;28;20028;-75
2022/07/03 09:18:00;;;;;;;4.43;2.28;;;21.90;59.60;;;;;;5114093;28;20087;-75
2022/07/03 09:20:34;;;;;;;4.28;2.17;;;22.00;58.70;;;;;;5114033;28;20058;-75
2022/07/03 09:23:11;;;;;;;3.55;2.00;;;22.00;59.90;;;;;;5114013;28;20056;-75
2022/07/03 09:25:57;;;;;;;6.03;2.30;;;22.00;61.30;;;;;;5114178;28;20016;-75
2022/07/03 09:28:40;;;;;;;3.45;1.80;;;22.10;61.00;;;;;;5095871;28;20020;-75
2022/07/03 09:31:06;;;;;;;;;;;22.10;61.50;;;;;;5114349;28;20020;-75
2022/07/03 09:33:31;;;;;;;2.95;2.10;;;22.10;60.20;;;;;;5113760;28;19979;-75
2022/07/03 09:35:57;;;;;;;3.67;1.92;;;22.10;60.40;;;;;;5113768;28;20106;-75
2022/07/03 09:38:23;;;;;;;4.50;2.15;;;22.10;61.20;;;;;;5113755;28;20024;-75
2022/07/03 09:40:51;;;;;;;4.05;2.00;;;22.20;59.30;;;;;;5113715;28;20054;-75
2022/07/03 09:43:24;;;;;;;4.53;2.25;;;22.20;58.40;;;;;;5113381;28;20170;-75
2022/07/03 09:46:08;;;;;;;4.22;2.30;;;22.20;61.20;;;;;;5113686;28;20049;-75
2022/07/03 09:48:41;;;;;;;4.47;2.50;;;22.20;59.60;;;;;;5113684;28;20036;-75
2022/07/03 09:51:29;;;;;;;3.60;2.50;;;22.30;59.20;;;;;;5113674;28;20029;-75
2022/07/03 09:53:58;;;;;;;4.28;2.10;;;22.50;58.20;;;;;;5113366;28;20048;-75
2022/07/03 09:56:29;;;;;;;2.88;1.70;;;22.50;57.70;;;;;;5095801;28;20040;-74
2022/07/03 09:59:10;;;;;;;5.93;2.60;;;22.60;59.30;;;;;;5113594;28;20020;-75
2022/07/03 10:01:38;;;;;;;5.13;1.92;;;22.70;57.70;;;;;;5113689;28;20044;-75
2022/07/03 10:04:10;;;;;;;5.35;1.60;;;22.60;55.70;;;;;;5113502;28;20030;-75
2022/07/03 10:06:54;;;;;;;2.45;1.50;;;22.40;55.00;;;;;;5113449;28;20032;-75
2022/07/03 10:09:40;;;;;;;4.13;1.45;;;22.40;55.40;;;;;;5113418;28;20030;-76
2022/07/03 10:12:06;;;;;;;3.60;1.60;;;22.50;56.40;;;;;;5112914;28;20048;-75
2022/07/03 10:14:32;;;;;;;3.83;1.80;;;22.50;56.50;;;;;;5113539;28;20024;-74
2022/07/03 10:17:00;;;;;;;4.00;1.95;;;22.50;58.50;;;;;;5113495;28;20031;-75
2022/07/03 10:19:28;;;;;;;2.63;2.10;;;22.70;59.20;;;;;;5113316;28;20043;-75
2022/07/03 10:22:01;;;;;;;3.97;2.08;;;22.80;58.50;;;;;;5113320;28;20016;-75
2022/07/03 10:24:29;;;;;;;4.15;2.13;;;22.80;58.90;;;;;;5113246;28;20024;-75
2022/07/03 10:26:56;;;;;;;4.07;2.10;;;22.90;58.90;;;;;;5113238;28;20072;-75
2022/07/03 10:29:23;;;;;;;6.10;2.33;;;22.90;57.30;;;;;;5113177;28;20080;-74
2022/07/03 10:31:49;;;;;;;3.50;2.15;;;22.90;57.50;;;;;;5095379;28;20030;-74
2022/07/03 10:34:20;;;;;;;2.80;1.75;;;23.00;58.00;;;;;;5113185;28;20039;-75
2022/07/03 10:36:48;;;;;;;2.85;1.50;;;23.00;57.00;;;;;;5095362;28;20020;-75
2022/07/03 10:39:40;;;;;;;1.98;1.70;;;23.20;54.20;;;;;;5113168;28;20023;-74
2022/07/03 10:45:09;;;;;;;1.90;1.40;;;23.00;58.50;;;;;;5113333;28;20032;-75
2022/07/03 10:47:43;;;;;;;3.40;1.90;;;23.20;52.70;;;;;;5113079;28;20026;-74
2022/07/03 10:50:11;;;;;;;3.92;1.65;;;23.20;53.00;;;;;;5113120;28;20023;-74
2022/07/03 10:52:39;;;;;;;3.15;1.90;;;23.10;53.00;;;;;;5112780;28;20036;-74
2022/07/03 10:55:06;;;;;;;4.75;2.70;;;23.20;53.00;;;;;;5113145;28;20028;-75
2022/07/03 10:57:32;;;;;;;3.60;2.38;;;23.30;52.80;;;;;;5116955;28;20050;-75
2022/07/03 11:00:00;;;;;;;2.83;2.60;;;23.40;52.80;;;;;;5116788;28;20031;-75
2022/07/03 11:02:41;;;;;;;3.80;2.80;;;23.30;54.20;;;;;;5116672;28;20023;-75
2022/07/03 11:05:06;;;;;;;3.67;2.95;;;23.30;54.30;;;;;;5116671;28;20032;-75
2022/07/03 11:07:50;;;;;;;4.85;2.63;;;23.30;54.10;;;;;;5116564;28;20028;-75
2022/07/03 11:10:16;;;;;;;4.43;3.05;;;23.40;55.10;;;;;;5116586;28;20024;-75
2022/07/03 11:13:03;;;;;;;3.88;3.10;;;23.50;56.00;;;;;;5116413;28;20092;-75
2022/07/03 11:15:54;;;;;;;3.90;2.90;;;23.70;53.70;;;;;;5116470;28;20020;-75
2022/07/03 11:18:33;;;;;;;2.63;1.90;;;23.90;51.40;;;;;;5116465;28;20063;-75
2022/07/03 11:21:21;;;;;;;2.50;2.30;;;23.90;49.90;;;;;;5116381;28;20024;-75
2022/07/03 11:23:59;;;;;;;3.75;2.33;;;23.90;49.30;;;;;;5116473;28;20027;-75
2022/07/03 11:26:24;;;;;;;4.32;2.47;;;23.80;50.00;;;;;;5116395;28;20429;-75
2022/07/03 11:28:54;;;;;;;2.58;2.15;;;23.70;50.20;;;;;;5116130;28;20036;-75
2022/07/03 11:31:23;;;;;;;2.97;2.40;;;23.60;49.60;;;;;;5116195;28;20016;-74
2022/07/03 11:33:51;;;;;;;4.18;2.50;;;23.50;50.50;;;;;;5116041;28;20048;-74
2022/07/03 11:36:17;;;;;;;3.08;2.40;;;23.40;50.90;;;;;;5116060;28;20024;-74
2022/07/03 11:38:44;;;;;;;4.88;3.30;;;23.20;51.40;;;;;;5116010;28;20024;-74
2022/07/03 11:41:11;;;;;;;3.25;2.63;;;23.10;51.80;;;;;;5115986;28;20036;-75
2022/07/03 11:43:38;;;;;;;3.70;2.67;;;23.10;52.30;;;;;;5115902;28;20050;-75
2022/07/03 11:46:04;;;;;;;4.90;3.10;;;23.10;53.50;;;;;;5115797;28;20471;-74
2022/07/03 11:48:30;;;;;;;3.20;2.90;;;23.00;54.40;;;;;;5115800;28;20028;-74
2022/07/03 11:51:02;;;;;;;7.43;2.78;;;23.00;55.40;;;;;;5115757;28;20083;-74
2022/07/03 11:53:34;;;;;;;3.95;2.95;;;22.90;55.20;;;;;;5115437;28;20072;-74
2022/07/03 11:56:01;;;;;;;4.53;3.00;;;22.90;56.20;;;;;;5097757;28;20440;-75
2022/07/03 11:58:41;;;;;;;4.80;3.22;;;22.90;57.40;;;;;;5115784;28;20046;-74
2022/07/03 12:01:09;;;;;;;5.15;2.83;;;23.10;55.20;;;;;;5115749;28;20042;-75
2022/07/03 12:03:34;;;;;;;2.55;2.35;;;23.10;57.40;;;;;;5115520;28;20024;-74
2022/07/03 12:06:00;;;;;;;2.30;1.90;;;23.00;57.70;;;;;;5115268;28;20092;-74
2022/07/03 12:08:27;;;;;;;2.40;1.65;;;22.90;53.00;;;;;;5115443;28;20032;-74
2022/07/03 12:10:57;;;;;;;4.72;1.83;;;22.90;54.10;;;;;;5115357;28;20024;-75
2022/07/03 12:13:25;;;;;;;2.92;1.80;;;23.00;54.50;;;;;;5115440;28;20025;-75
2022/07/03 12:15:51;;;;;;;2.63;1.92;;;23.10;52.50;;;;;;5115301;28;20046;-74
2022/07/03 12:18:16;;;;;;;4.00;2.05;;;23.20;55.00;;;;;;5115391;28;20414;-74
2022/07/03 12:20:42;;;;;;;4.97;1.65;;;23.20;54.70;;;;;;5115188;28;20028;-74
2022/07/03 12:23:08;;;;;;;3.28;1.90;;;23.30;53.40;;;;;;5097260;28;20036;-75
2022/07/03 12:25:40;;;;;;;3.35;1.88;;;23.50;54.10;;;;;;5115245;28;20034;-74
2022/07/03 12:28:10;;;;;;;4.18;2.35;;;23.70;52.80;;;;;;5114963;28;20032;-75
2022/07/03 12:30:37;;;;;;;3.15;2.22;;;23.70;53.10;;;;;;5115015;28;20035;-75
2022/07/03 12:33:04;;;;;;;2.47;1.80;;;23.80;53.00;;;;;;5114860;28;20467;-74
2022/07/03 12:35:29;;;;;;;2.97;2.20;;;23.90;53.20;;;;;;5114897;28;20012;-75
2022/07/03 12:37:55;;;;;;;3.83;2.20;;;23.70;49.90;;;;;;5114837;28;20020;-75
2022/07/03 12:40:21;;;;;;;4.20;2.05;;;23.50;51.10;;;;;;5096891;28;20035;-75
2022/07/03 12:42:54;;;;;;;5.30;2.20;;;23.50;51.10;;;;;;5114799;28;20024;-75
2022/07/03 12:45:29;;;;;;;6.95;2.10;;;23.60;51.40;;;;;;5114738;28;20024;-75
2022/07/03 12:47:59;;;;;;;3.00;2.65;;;23.70;51.80;;;;;;5114725;28;20073;-74
2022/07/03 12:50:25;;;;;;;5.85;2.70;;;23.70;50.60;;;;;;5114623;28;20039;-74
2022/07/03 12:52:57;;;;;;;2.83;2.63;;;23.50;50.90;;;;;;5114311;28;20059;-76
2022/07/03 12:55:28;;;;;;;4.00;2.67;;;23.60;50.10;;;;;;5114529;28;20020;-75
2022/07/03 13:00:58;;;;;;;5.28;3.30;;;23.70;49.40;;;;;;5114685;28;20057;-74
2022/07/03 13:03:34;;;;;;;4.28;3.25;;;23.60;49.80;;;;;;5114449;28;20079;-74
2022/07/03 13:06:00;;;;;;;3.03;2.55;;;23.50;50.40;;;;;;5114542;28;20043;-75
2022/07/03 13:08:26;;;;;;;3.03;2.53;;;23.60;50.20;;;;;;5114309;28;20047;-75